createdAt,value
2023-03-17T00:00:07.227Z,52.60
2023-03-17T00:01:09.877Z,52.99
2023-03-17T00:02:12.109Z,52.89
2023-03-17T00:03:23.742Z,53.04
2023-03-17T00:04:27.403Z,53.40
2023-03-17T00:05:35.629Z,53.87
2023-03-17T00:06:38.325Z,54.00
2023-03-17T00:07:40.674Z,54.36
2023-03-17T00:08:43.870Z,54.27
2023-03-17T00:09:46.076Z,54.40
2023-03-17T00:10:48.789Z,54.41
2023-03-17T00:11:51.098Z,54.75
2023-03-17T00:12:55.161Z,54.80
2023-03-17T00:13:57.667Z,54.86
2023-03-17T00:14:59.843Z,55.00
2023-03-17T00:16:04.452Z,55.31
2023-03-17T00:17:06.760Z,54.55
2023-03-17T00:18:17.683Z,54.56
2023-03-17T00:19:33.793Z,54.86
2023-03-17T00:20:35.907Z,54.10
2023-03-17T00:21:38.044Z,54.84
2023-03-17T00:22:40.275Z,54.45
2023-03-17T00:23:47.043Z,54.63
2023-03-17T00:24:49.652Z,53.93
2023-03-17T00:25:53.560Z,54.05
2023-03-17T00:26:55.703Z,55.23
2023-03-17T00:28:00.876Z,54.78
2023-03-17T00:29:03.008Z,54.44
2023-03-17T00:30:05.659Z,54.53
2023-03-17T00:31:20.987Z,54.87
2023-03-17T00:32:23.241Z,54.34
2023-03-17T00:33:30.491Z,55.25
2023-03-17T00:34:32.814Z,55.79
2023-03-17T00:35:34.945Z,55.80
2023-03-17T00:36:37.522Z,55.53
2023-03-17T00:37:39.623Z,55.57
2023-03-17T00:38:41.848Z,55.77
2023-03-17T00:39:44.263Z,55.91
2023-03-17T00:42:50.959Z,56.57
2023-03-17T00:43:53.149Z,56.30
2023-03-17T00:44:55.634Z,56.59
2023-03-17T00:45:57.832Z,57.00
2023-03-17T00:47:00.710Z,56.75
2023-03-17T00:48:03.414Z,56.96
2023-03-17T00:50:24.479Z,56.87
2023-03-17T00:51:27.066Z,57.10
2023-03-17T00:52:29.390Z,57.94
2023-03-17T00:53:31.553Z,57.66
2023-03-17T00:54:33.833Z,58.24
2023-03-17T00:55:36.044Z,57.73
2023-03-17T00:56:39.689Z,57.37
2023-03-17T00:57:42.961Z,57.36
2023-03-17T00:58:46.167Z,58.05
2023-03-17T00:59:48.349Z,57.99
2023-03-17T01:00:52.241Z,57.73
2023-03-17T01:01:55.400Z,57.29
2023-03-17T01:02:57.973Z,57.70
2023-03-17T01:04:00.123Z,58.48
2023-03-17T01:05:06.698Z,58.79
2023-03-17T01:06:12.099Z,58.51
2023-03-17T01:07:14.478Z,58.29
2023-03-17T01:08:16.904Z,59.36
2023-03-17T01:09:19.574Z,58.89
2023-03-17T01:10:25.892Z,58.93
2023-03-17T01:11:28.020Z,58.71
2023-03-17T01:12:30.266Z,58.29
2023-03-17T01:13:32.376Z,58.57
2023-03-17T01:14:37.354Z,58.67
2023-03-17T01:15:43.343Z,58.68
2023-03-17T01:16:45.569Z,58.82
2023-03-17T01:17:48.065Z,59.05
2023-03-17T01:18:50.174Z,59.85
2023-03-17T01:19:52.854Z,60.15
2023-03-17T01:20:54.988Z,59.36
2023-03-17T01:21:57.873Z,59.40
2023-03-17T01:23:01.574Z,59.79
2023-03-17T01:24:04.456Z,60.96
2023-03-17T01:25:06.884Z,60.01
2023-03-17T01:26:09.672Z,60.40
2023-03-17T01:27:12.381Z,60.07
2023-03-17T01:28:18.007Z,60.23
2023-03-17T01:29:20.172Z,60.18
2023-03-17T01:30:31.455Z,60.51
2023-03-17T01:31:34.875Z,60.34
2023-03-17T01:32:37.205Z,59.81
2023-03-17T01:33:39.394Z,59.57
2023-03-17T01:34:41.509Z,59.66
2023-03-17T01:35:45.845Z,60.14
2023-03-17T01:36:48.611Z,61.11
2023-03-17T01:37:51.101Z,60.71
2023-03-17T01:38:53.800Z,60.17
2023-03-17T01:39:55.972Z,60.16
2023-03-17T01:40:58.239Z,59.91
2023-03-17T01:42:01.402Z,60.04
2023-03-17T01:43:06.312Z,60.26
2023-03-17T01:44:15.791Z,60.86
2023-03-17T01:45:55.216Z,60.22
2023-03-17T01:46:57.355Z,60.17
2023-03-17T01:47:59.494Z,59.97
2023-03-17T01:49:10.477Z,60.88
2023-03-17T01:50:13.184Z,61.48
2023-03-17T01:51:23.152Z,60.93
2023-03-17T01:52:25.373Z,60.81
2023-03-17T01:53:28.345Z,60.53
2023-03-17T01:54:37.942Z,60.68
2023-03-17T01:55:40.599Z,60.66
2023-03-17T01:56:44.734Z,60.32
2023-03-17T01:57:51.205Z,60.47
2023-03-17T01:58:54.614Z,61.82
2023-03-17T02:00:06.523Z,62.13
2023-03-17T02:01:08.787Z,62.00
2023-03-17T02:02:15.210Z,61.32
2023-03-17T02:03:18.319Z,60.30
2023-03-17T02:04:20.917Z,60.55
2023-03-17T02:05:26.084Z,60.51
2023-03-17T02:06:28.421Z,60.36
2023-03-17T02:07:31.461Z,61.58
2023-03-17T02:08:33.593Z,61.68
2023-03-17T02:09:36.143Z,60.80
2023-03-17T02:10:39.397Z,60.96
2023-03-17T02:11:42.185Z,61.07
2023-03-17T02:12:46.368Z,61.16
2023-03-17T02:13:48.655Z,61.32
2023-03-17T02:14:51.876Z,62.29
2023-03-17T02:15:54.522Z,62.06
2023-03-17T02:16:57.474Z,61.69
2023-03-17T02:18:00.151Z,61.60
2023-03-17T02:19:02.228Z,61.88
2023-03-17T02:20:33.238Z,61.75
2023-03-17T02:21:43.883Z,61.07
2023-03-17T02:22:49.621Z,61.04
2023-03-17T02:23:51.809Z,61.03
2023-03-17T02:24:58.560Z,61.17
2023-03-17T02:26:00.794Z,60.91
2023-03-17T02:27:34.868Z,60.58
2023-03-17T02:28:37.056Z,60.26
2023-03-17T02:29:39.517Z,61.11
2023-03-17T02:30:43.142Z,60.79
2023-03-17T02:31:45.560Z,61.40
2023-03-17T02:32:47.911Z,61.10
2023-03-17T02:33:50.435Z,61.05
2023-03-17T02:34:53.097Z,61.47
2023-03-17T02:35:55.321Z,61.62
2023-03-17T02:36:58.608Z,60.77
2023-03-17T02:38:01.157Z,60.92
2023-03-17T02:39:04.442Z,61.37
2023-03-17T02:40:07.831Z,61.04
2023-03-17T02:41:10.025Z,61.13
2023-03-17T02:42:14.007Z,60.81
2023-03-17T02:43:16.758Z,61.30
2023-03-17T02:44:19.114Z,61.33
2023-03-17T02:45:21.572Z,60.72
2023-03-17T02:46:23.734Z,61.34
2023-03-17T02:47:26.122Z,61.20
2023-03-17T02:48:28.424Z,60.92
2023-03-17T02:49:31.193Z,61.10
2023-03-17T02:50:33.603Z,60.79
2023-03-17T02:51:36.231Z,61.06
2023-03-17T02:52:38.350Z,61.22
2023-03-17T02:53:40.706Z,61.38
2023-03-17T02:54:42.965Z,61.56
2023-03-17T02:55:45.078Z,61.30
2023-03-17T02:56:47.253Z,61.91
2023-03-17T02:57:49.393Z,62.82
2023-03-17T02:58:51.783Z,62.60
2023-03-17T02:59:53.966Z,62.15
2023-03-17T03:00:56.626Z,62.33
2023-03-17T03:01:58.838Z,62.26
2023-03-17T03:03:01.405Z,62.07
2023-03-17T03:04:04.062Z,62.55
2023-03-17T03:05:07.427Z,63.05
2023-03-17T03:06:09.552Z,62.88
2023-03-17T03:07:12.382Z,62.86
2023-03-17T03:08:14.652Z,62.56
2023-03-17T03:09:17.891Z,62.60
2023-03-17T03:10:20.049Z,62.93
2023-03-17T03:11:22.359Z,62.45
2023-03-17T03:12:24.976Z,62.30
2023-03-17T03:13:27.142Z,62.72
2023-03-17T03:14:29.300Z,62.86
2023-03-17T03:15:31.507Z,62.75
2023-03-17T03:16:34.395Z,62.39
2023-03-17T03:17:36.830Z,63.01
2023-03-17T03:18:38.997Z,63.01
2023-03-17T03:19:41.112Z,62.82
2023-03-17T03:20:44.687Z,63.50
2023-03-17T03:21:46.812Z,63.41
2023-03-17T03:22:48.975Z,62.92
2023-03-17T03:23:51.165Z,62.92
2023-03-17T03:24:53.298Z,62.88
2023-03-17T03:25:55.828Z,63.11
2023-03-17T03:26:58.104Z,63.05
2023-03-17T03:28:00.261Z,63.49
2023-03-17T03:29:02.836Z,63.31
2023-03-17T03:30:07.986Z,63.30
2023-03-17T03:31:10.431Z,63.27
2023-03-17T03:32:12.739Z,63.30
2023-03-17T03:33:15.592Z,63.37
2023-03-17T03:34:17.730Z,63.33
2023-03-17T03:35:19.900Z,63.41
2023-03-17T03:36:22.595Z,63.52
2023-03-17T03:37:25.075Z,63.44
2023-03-17T03:38:27.604Z,62.83
2023-03-17T03:39:29.717Z,62.75
2023-03-17T03:40:32.321Z,63.06
2023-03-17T03:41:34.756Z,63.11
2023-03-17T03:42:36.879Z,63.29
2023-03-17T03:43:39.026Z,63.06
2023-03-17T03:44:41.161Z,63.22
2023-03-17T03:45:43.386Z,63.49
2023-03-17T03:46:45.888Z,62.69
2023-03-17T03:47:48.114Z,63.48
2023-03-17T03:48:50.240Z,64.24
2023-03-17T03:49:52.419Z,63.81
2023-03-17T03:50:58.613Z,63.34
2023-03-17T03:52:00.928Z,63.49
2023-03-17T03:53:03.083Z,64.04
2023-03-17T03:54:05.329Z,64.50
2023-03-17T03:55:09.009Z,64.21
2023-03-17T03:56:11.299Z,64.35
2023-03-17T03:57:13.417Z,64.05
2023-03-17T03:58:15.523Z,64.70
2023-03-17T03:59:17.840Z,64.89
2023-03-17T04:00:20.236Z,64.88
2023-03-17T04:01:22.395Z,64.80
2023-03-17T04:02:24.584Z,65.07
2023-03-17T04:03:27.096Z,64.74
2023-03-17T04:04:29.376Z,64.67
2023-03-17T04:05:31.874Z,65.27
2023-03-17T04:06:33.995Z,65.67
2023-03-17T04:07:37.002Z,65.04
2023-03-17T04:08:39.152Z,65.34
2023-03-17T04:09:41.529Z,65.46
2023-03-17T04:10:43.762Z,65.38
2023-03-17T04:11:45.980Z,65.54
2023-03-17T04:12:48.102Z,65.48
2023-03-17T04:13:50.273Z,65.55
2023-03-17T04:14:52.382Z,65.00
2023-03-17T04:15:54.613Z,65.43
2023-03-17T04:16:56.740Z,64.86
2023-03-17T04:17:58.877Z,64.82
2023-03-17T04:19:01.709Z,65.41
2023-03-17T04:20:04.311Z,64.73
2023-03-17T04:21:08.377Z,64.90
2023-03-17T04:22:12.020Z,65.51
2023-03-17T04:23:14.158Z,65.26
2023-03-17T04:24:16.353Z,65.08
2023-03-17T04:25:18.710Z,65.32
2023-03-17T04:26:23.144Z,65.15
2023-03-17T04:27:25.300Z,65.77
2023-03-17T04:28:27.570Z,65.73
2023-03-17T04:29:30.018Z,65.85
2023-03-17T04:30:32.698Z,65.63
2023-03-17T04:31:36.155Z,65.39
2023-03-17T04:32:38.313Z,65.39
2023-03-17T04:33:40.877Z,66.07
2023-03-17T04:34:43.027Z,66.27
2023-03-17T04:35:45.555Z,66.16
2023-03-17T04:36:48.194Z,65.79
2023-03-17T04:37:51.056Z,65.95
2023-03-17T04:38:53.438Z,65.57
2023-03-17T04:39:55.951Z,66.14
2023-03-17T04:40:58.084Z,66.49
2023-03-17T04:42:00.277Z,66.22
2023-03-17T04:43:03.546Z,66.30
2023-03-17T04:44:06.338Z,66.17
2023-03-17T04:45:15.551Z,66.26
2023-03-17T04:46:18.186Z,65.90
2023-03-17T04:47:20.303Z,66.25
2023-03-17T04:48:22.444Z,66.43
2023-03-17T04:49:24.834Z,66.44
2023-03-17T04:50:26.952Z,66.13
2023-03-17T04:51:29.097Z,66.40
2023-03-17T04:52:31.208Z,65.98
2023-03-17T04:53:33.395Z,65.96
2023-03-17T04:54:36.565Z,66.44
2023-03-17T04:55:38.679Z,66.40
2023-03-17T04:56:41.073Z,66.44
2023-03-17T04:57:44.373Z,66.13
2023-03-17T04:58:46.697Z,66.65
2023-03-17T04:59:48.845Z,66.13
2023-03-17T05:00:51.498Z,65.91
2023-03-17T05:01:53.660Z,66.60
2023-03-17T05:02:55.777Z,66.28
2023-03-17T05:03:57.945Z,66.05
2023-03-17T05:05:00.169Z,66.06
2023-03-17T05:06:03.802Z,66.18
2023-03-17T05:07:05.954Z,66.67
2023-03-17T05:08:08.070Z,66.55
2023-03-17T05:09:10.403Z,66.33
2023-03-17T05:10:12.696Z,66.69
2023-03-17T05:11:15.416Z,66.35
2023-03-17T05:12:17.569Z,65.68
2023-03-17T05:13:19.688Z,65.97
2023-03-17T05:14:21.841Z,65.44
2023-03-17T05:15:24.009Z,65.72
2023-03-17T05:16:26.150Z,65.65
2023-03-17T05:17:28.368Z,65.75
2023-03-17T05:18:30.669Z,65.39
2023-03-17T05:19:32.924Z,65.80
2023-03-17T05:20:35.049Z,66.15
2023-03-17T05:21:37.267Z,66.35
2023-03-17T05:22:39.454Z,66.02
2023-03-17T05:23:41.956Z,65.60
2023-03-17T05:24:44.353Z,65.04
2023-03-17T05:25:46.922Z,65.01
2023-03-17T05:26:49.089Z,64.70
2023-03-17T05:27:51.359Z,64.85
2023-03-17T05:28:53.457Z,65.02
2023-03-17T05:29:55.993Z,64.73
2023-03-17T05:30:58.456Z,65.38
2023-03-17T05:32:00.671Z,66.30
2023-03-17T05:33:03.089Z,66.80
2023-03-17T05:34:05.716Z,66.47
2023-03-17T05:35:08.098Z,65.75
2023-03-17T05:36:10.266Z,65.08
2023-03-17T05:37:12.936Z,65.83
2023-03-17T05:38:16.076Z,65.03
2023-03-17T05:39:18.245Z,64.85
2023-03-17T05:40:22.512Z,64.70
2023-03-17T05:41:26.559Z,64.75
2023-03-17T05:42:28.690Z,64.36
2023-03-17T05:43:30.812Z,64.76
2023-03-17T05:44:32.993Z,64.08
2023-03-17T05:45:35.181Z,64.49
2023-03-17T05:46:37.419Z,64.18
2023-03-17T05:47:39.573Z,63.75
2023-03-17T05:48:41.978Z,63.31
2023-03-17T05:49:44.104Z,63.53
2023-03-17T05:50:46.280Z,63.59
2023-03-17T05:51:48.408Z,63.44
2023-03-17T05:52:52.276Z,62.98
2023-03-17T05:53:54.465Z,63.18
2023-03-17T05:54:56.822Z,62.66
2023-03-17T05:55:58.972Z,63.10
2023-03-17T05:57:01.224Z,62.34
2023-03-17T05:58:05.140Z,62.38
2023-03-17T05:59:08.348Z,62.30
2023-03-17T06:00:12.769Z,62.09
2023-03-17T06:01:14.984Z,62.16
2023-03-17T06:02:17.230Z,61.49
2023-03-17T06:03:19.582Z,61.33
2023-03-17T06:04:21.951Z,60.98
2023-03-17T06:05:24.226Z,61.08
2023-03-17T06:06:27.072Z,61.26
2023-03-17T06:07:38.129Z,60.62
2023-03-17T06:08:50.763Z,59.92
2023-03-17T06:09:52.909Z,59.80
2023-03-17T06:10:55.084Z,59.67
2023-03-17T06:11:57.753Z,59.49
2023-03-17T06:13:03.371Z,59.06
2023-03-17T06:14:06.318Z,58.35
2023-03-17T06:15:09.848Z,58.04
2023-03-17T06:16:12.246Z,58.06
2023-03-17T06:17:14.496Z,57.88
2023-03-17T06:18:16.639Z,57.53
2023-03-17T06:19:19.122Z,57.13
2023-03-17T06:20:22.026Z,57.69
2023-03-17T06:21:24.219Z,57.45
2023-03-17T06:22:26.320Z,57.28
2023-03-17T06:23:28.497Z,57.06
2023-03-17T06:24:30.705Z,56.69
2023-03-17T06:25:34.871Z,56.75
2023-03-17T06:26:37.292Z,56.77
2023-03-17T06:27:39.644Z,56.58
2023-03-17T06:28:41.892Z,56.14
2023-03-17T06:29:44.083Z,56.29
2023-03-17T06:30:46.669Z,56.00
2023-03-17T06:31:51.204Z,55.99
2023-03-17T06:32:53.438Z,55.74
2023-03-17T06:33:57.456Z,55.51
2023-03-17T06:34:59.678Z,55.72
2023-03-17T06:36:01.895Z,54.68
2023-03-17T06:37:05.034Z,54.80
2023-03-17T06:38:07.570Z,54.10
2023-03-17T06:39:09.748Z,54.41
2023-03-17T06:40:12.617Z,54.38
2023-03-17T06:41:15.076Z,53.83
2023-03-17T06:42:17.214Z,53.35
2023-03-17T06:43:19.701Z,52.16
2023-03-17T06:44:22.135Z,51.93
2023-03-17T06:45:24.319Z,51.72
2023-03-17T06:46:27.153Z,51.71
2023-03-17T06:47:29.420Z,51.69
2023-03-17T06:48:31.504Z,51.19
2023-03-17T06:49:33.758Z,51.64
2023-03-17T06:50:36.194Z,50.50
2023-03-17T06:51:38.318Z,50.79
2023-03-17T06:52:40.969Z,50.78
2023-03-17T06:53:43.143Z,50.52
2023-03-17T06:54:45.245Z,50.16
2023-03-17T06:55:48.259Z,50.01
2023-03-17T06:56:50.950Z,49.61
2023-03-17T06:57:54.337Z,49.25
2023-03-17T06:58:56.454Z,48.19
2023-03-17T06:59:58.599Z,48.46
2023-03-17T07:01:00.865Z,47.59
2023-03-17T07:02:03.742Z,48.41
2023-03-17T07:03:06.325Z,47.95
2023-03-17T07:04:09.529Z,48.54
2023-03-17T07:05:13.964Z,48.59
2023-03-17T07:06:16.105Z,47.94
2023-03-17T07:07:19.607Z,47.80
2023-03-17T07:08:22.104Z,48.53
2023-03-17T07:09:24.220Z,48.18
2023-03-17T07:10:26.403Z,48.32
2023-03-17T07:11:29.307Z,47.81
2023-03-17T07:12:33.060Z,47.96
2023-03-17T07:13:37.314Z,46.97
2023-03-17T07:14:39.437Z,47.15
2023-03-17T07:15:41.913Z,46.14
2023-03-17T07:16:45.167Z,45.79
2023-03-17T07:17:47.962Z,46.01
2023-03-17T07:18:50.695Z,45.68
2023-03-17T07:19:52.813Z,45.75
2023-03-17T07:20:54.985Z,46.27
2023-03-17T07:21:57.232Z,45.19
2023-03-17T07:22:59.590Z,44.61
2023-03-17T07:24:01.719Z,42.39
2023-03-17T07:25:04.024Z,43.09
2023-03-17T07:26:06.146Z,42.53
2023-03-17T07:27:08.713Z,43.15
2023-03-17T07:28:10.855Z,43.20
2023-03-17T07:29:14.289Z,43.94
2023-03-17T07:30:19.210Z,43.82
2023-03-17T07:31:21.688Z,42.69
2023-03-17T07:32:24.731Z,42.33
2023-03-17T07:33:26.866Z,41.77
2023-03-17T07:34:29.079Z,42.46
2023-03-17T07:35:33.808Z,41.84
2023-03-17T07:36:36.578Z,41.34
2023-03-17T07:37:38.780Z,42.02
2023-03-17T07:38:41.769Z,41.82
2023-03-17T07:39:44.480Z,41.53
2023-03-17T07:40:49.829Z,41.63
2023-03-17T07:41:55.645Z,41.54
2023-03-17T07:42:57.759Z,41.90
2023-03-17T07:44:00.204Z,41.38
2023-03-17T07:45:03.952Z,40.81
2023-03-17T07:46:06.630Z,41.16
2023-03-17T07:47:10.215Z,41.16
2023-03-17T07:48:12.754Z,40.38
2023-03-17T07:49:15.203Z,39.83
2023-03-17T07:50:17.651Z,39.78
2023-03-17T07:51:22.225Z,40.24
2023-03-17T07:52:24.429Z,40.25
2023-03-17T07:53:26.612Z,40.40
2023-03-17T07:54:29.255Z,39.77
2023-03-17T07:55:32.791Z,39.71
2023-03-17T07:56:35.285Z,39.26
2023-03-17T07:57:37.502Z,39.37
2023-03-17T07:58:40.382Z,39.06
2023-03-17T07:59:42.511Z,39.68
2023-03-17T08:00:44.645Z,39.77
2023-03-17T08:01:46.826Z,40.54
2023-03-17T08:03:07.076Z,39.37
2023-03-17T08:04:13.310Z,39.17
2023-03-17T08:05:15.514Z,39.54
2023-03-17T08:06:17.861Z,38.72
2023-03-17T08:07:20.339Z,37.31
2023-03-17T08:08:23.680Z,38.14
2023-03-17T08:09:25.829Z,37.07
2023-03-17T08:10:28.057Z,37.27
2023-03-17T08:11:30.218Z,37.39
2023-03-17T08:12:32.371Z,37.04
2023-03-17T08:13:34.892Z,36.91
2023-03-17T08:14:37.022Z,37.04
2023-03-17T08:15:39.173Z,36.25
2023-03-17T08:16:41.452Z,36.40
2023-03-17T08:17:43.732Z,36.28
2023-03-17T08:18:46.243Z,36.18
2023-03-17T08:19:48.369Z,36.30
2023-03-17T08:20:51.462Z,35.43
2023-03-17T08:21:54.101Z,34.79
2023-03-17T08:22:56.871Z,34.90
2023-03-17T08:23:59.123Z,34.24
2023-03-17T08:25:01.573Z,33.94
2023-03-17T08:26:04.545Z,33.99
2023-03-17T08:27:08.094Z,33.10
2023-03-17T08:28:10.484Z,32.68
2023-03-17T08:29:12.642Z,32.04
2023-03-17T08:30:16.466Z,30.42
2023-03-17T08:31:20.901Z,28.72
2023-03-17T08:32:23.149Z,29.04
2023-03-17T08:33:25.305Z,28.31
2023-03-17T08:34:27.420Z,27.22
2023-03-17T08:35:31.028Z,26.70
2023-03-17T08:36:33.866Z,26.44
2023-03-17T08:37:37.898Z,26.51
2023-03-17T08:38:41.540Z,26.69
2023-03-17T08:39:44.926Z,26.43
2023-03-17T08:40:47.288Z,26.39
2023-03-17T08:41:49.417Z,27.23
2023-03-17T08:42:51.796Z,27.30
2023-03-17T08:43:54.444Z,27.48
2023-03-17T08:44:56.575Z,26.34
2023-03-17T08:46:13.883Z,25.29
2023-03-17T08:47:16.259Z,25.43
2023-03-17T08:48:18.369Z,26.20
2023-03-17T08:49:21.708Z,26.16
2023-03-17T08:50:24.288Z,26.16
2023-03-17T08:51:29.140Z,26.00
2023-03-17T08:52:31.693Z,25.84
2023-03-17T08:53:35.138Z,24.79
2023-03-17T08:54:37.468Z,24.41
2023-03-17T08:55:40.057Z,24.68
2023-03-17T08:56:42.584Z,25.34
2023-03-17T08:57:45.421Z,26.02
2023-03-17T08:58:48.348Z,26.66
2023-03-17T08:59:51.034Z,26.16
2023-03-17T09:00:53.943Z,25.61
2023-03-17T09:01:56.959Z,24.42
2023-03-17T09:02:59.257Z,24.85
2023-03-17T09:04:01.783Z,25.47
2023-03-17T09:05:05.936Z,26.09
2023-03-17T09:06:11.270Z,26.22
2023-03-17T09:07:13.629Z,25.58
2023-03-17T09:08:15.908Z,24.90
2023-03-17T09:09:18.601Z,24.94
2023-03-17T09:10:22.837Z,25.16
2023-03-17T09:11:27.671Z,23.92
2023-03-17T09:12:30.044Z,23.62
2023-03-17T09:13:33.760Z,23.78
2023-03-17T09:14:43.376Z,23.89
2023-03-17T09:15:46.210Z,23.63
2023-03-17T09:16:48.837Z,23.28
2023-03-17T09:17:50.970Z,23.16
2023-03-17T09:18:53.617Z,22.67
2023-03-17T09:19:55.962Z,22.95
2023-03-17T09:20:58.166Z,23.41
2023-03-17T09:22:00.689Z,23.58
2023-03-17T09:23:09.574Z,22.48
2023-03-17T09:24:12.486Z,22.15
2023-03-17T09:25:15.855Z,21.56
2023-03-17T09:26:17.980Z,22.39
2023-03-17T09:27:20.116Z,22.89
2023-03-17T09:28:22.229Z,22.45
2023-03-17T09:29:24.307Z,21.79
2023-03-17T09:30:27.059Z,22.37
2023-03-17T09:31:29.493Z,21.77
2023-03-17T09:32:32.428Z,20.45
2023-03-17T09:33:34.674Z,20.28
2023-03-17T09:34:36.828Z,20.57
2023-03-17T09:35:40.289Z,21.19
2023-03-17T09:36:42.866Z,20.81
2023-03-17T09:37:45.143Z,21.18
2023-03-17T09:38:47.359Z,21.52
2023-03-17T09:39:49.744Z,22.51
2023-03-17T09:41:21.362Z,20.95
2023-03-17T09:42:43.832Z,20.48
2023-03-17T09:43:56.962Z,20.80
2023-03-17T09:45:35.455Z,21.35
2023-03-17T09:46:46.405Z,20.93
2023-03-17T09:47:54.618Z,20.18
2023-03-17T09:49:02.193Z,20.25
2023-03-17T09:50:17.628Z,20.27
2023-03-17T09:51:20.069Z,20.39
2023-03-17T09:52:32.570Z,21.19
2023-03-17T09:53:51.720Z,20.82
2023-03-17T09:54:54.224Z,21.77
2023-03-17T09:55:58.513Z,21.75
2023-03-17T09:57:06.889Z,22.03
2023-03-17T09:58:10.421Z,21.80
2023-03-17T09:59:23.664Z,21.85
2023-03-17T10:00:29.296Z,22.06
2023-03-17T10:01:32.347Z,21.90
2023-03-17T10:02:37.987Z,22.29
2023-03-17T10:03:40.216Z,22.24
2023-03-17T10:04:44.996Z,21.33
2023-03-17T10:05:47.424Z,20.60
2023-03-17T10:06:50.357Z,19.95
2023-03-17T10:08:30.165Z,19.39
2023-03-17T10:09:43.461Z,19.24
2023-03-17T10:11:28.382Z,19.11
2023-03-17T10:12:47.078Z,19.51
2023-03-17T10:14:01.181Z,19.57
2023-03-17T10:15:16.615Z,19.52
2023-03-17T10:16:20.793Z,18.64
2023-03-17T10:17:26.684Z,18.19
2023-03-17T10:18:33.834Z,18.45
2023-03-17T10:19:54.728Z,18.99
2023-03-17T10:21:01.404Z,18.88
2023-03-17T10:22:10.430Z,19.03
2023-03-17T10:23:15.333Z,19.17
2023-03-17T10:24:18.791Z,19.21
2023-03-17T10:25:22.174Z,19.46
2023-03-17T10:26:35.002Z,19.53
2023-03-17T10:27:37.829Z,19.07
2023-03-17T10:28:40.495Z,19.33
2023-03-17T10:29:42.882Z,18.70
2023-03-17T10:30:45.025Z,19.20
2023-03-17T10:31:47.650Z,19.18
2023-03-17T10:32:52.011Z,18.85
2023-03-17T10:33:55.796Z,19.47
2023-03-17T10:34:57.919Z,18.45
2023-03-17T10:36:09.428Z,19.71
2023-03-17T10:37:20.362Z,18.35
2023-03-17T10:38:23.510Z,18.03
2023-03-17T10:39:25.727Z,17.93
2023-03-17T10:40:30.614Z,18.04
2023-03-17T10:41:36.164Z,18.85
2023-03-17T10:43:17.823Z,18.05
2023-03-17T10:44:34.879Z,17.97
2023-03-17T10:45:43.292Z,17.99
2023-03-17T10:46:53.406Z,18.55
2023-03-17T10:47:57.753Z,19.10
2023-03-17T10:49:07.450Z,18.32
2023-03-17T10:50:15.524Z,18.68
2023-03-17T10:51:31.906Z,20.83
2023-03-17T10:52:39.669Z,17.99
2023-03-17T10:53:43.880Z,18.46
2023-03-17T10:54:51.659Z,17.83
2023-03-17T10:56:07.508Z,18.21
2023-03-17T10:57:14.081Z,18.33
2023-03-17T10:58:22.884Z,18.92
2023-03-17T11:00:38.619Z,17.41
2023-03-17T11:01:45.922Z,18.67
2023-03-17T11:02:53.605Z,17.06
2023-03-17T11:03:56.221Z,17.17
2023-03-17T11:05:09.624Z,18.21
2023-03-17T11:06:17.064Z,17.47
2023-03-17T11:07:22.188Z,17.91
2023-03-17T11:08:24.406Z,18.04
2023-03-17T11:09:29.275Z,19.06
2023-03-17T11:10:37.001Z,17.95
2023-03-17T11:11:48.044Z,17.72
2023-03-17T11:12:55.243Z,17.83
2023-03-17T11:14:06.086Z,18.98
2023-03-17T11:15:10.939Z,18.36
2023-03-17T11:16:22.581Z,18.35
2023-03-17T11:17:36.560Z,17.31
2023-03-17T11:18:39.936Z,16.78
2023-03-17T11:19:49.920Z,17.50
2023-03-17T11:21:07.179Z,17.67
2023-03-17T11:22:41.960Z,17.26
2023-03-17T11:23:55.643Z,17.79
2023-03-17T11:25:19.636Z,17.15
2023-03-17T11:26:38.919Z,17.19
2023-03-17T11:27:49.866Z,17.72
2023-03-17T11:28:57.268Z,17.70
2023-03-17T11:30:19.505Z,17.86
2023-03-17T11:31:32.278Z,18.29
2023-03-17T11:32:43.833Z,17.71
2023-03-17T11:34:00.305Z,17.58
2023-03-17T11:35:14.274Z,17.69
2023-03-17T11:36:51.613Z,17.03
2023-03-17T11:38:24.760Z,17.30
2023-03-17T11:39:28.647Z,17.90
2023-03-17T11:40:37.523Z,17.17
2023-03-17T11:41:48.646Z,17.43
2023-03-17T11:43:28.462Z,17.37
2023-03-17T11:44:53.297Z,17.14
2023-03-17T11:45:55.441Z,17.04
2023-03-17T11:47:21.469Z,16.76
2023-03-17T11:48:55.198Z,17.30
2023-03-17T11:50:08.444Z,18.54
2023-03-17T11:51:21.820Z,18.77
2023-03-17T11:52:33.540Z,18.78
2023-03-17T11:53:47.692Z,18.83
2023-03-17T11:54:54.164Z,17.71
2023-03-17T11:56:01.630Z,16.95
2023-03-17T11:57:08.240Z,17.04
2023-03-17T11:58:19.609Z,16.58
2023-03-17T11:59:36.279Z,16.01
2023-03-17T12:01:09.081Z,16.72
2023-03-17T12:02:23.479Z,15.46
2023-03-17T12:03:38.856Z,15.69
2023-03-17T12:04:58.883Z,15.43
2023-03-17T12:06:05.525Z,16.18
2023-03-17T12:07:23.151Z,15.79
2023-03-17T12:08:39.721Z,15.98
2023-03-17T12:09:45.691Z,16.08
2023-03-17T12:10:51.858Z,16.15
2023-03-17T12:11:55.816Z,17.10
2023-03-17T12:13:08.869Z,16.56
2023-03-17T12:14:30.915Z,15.58
2023-03-17T12:15:37.939Z,15.46
2023-03-17T12:17:10.784Z,15.62
2023-03-17T12:18:25.635Z,15.82
2023-03-17T12:19:36.991Z,15.68
2023-03-17T12:20:42.507Z,15.44
2023-03-17T12:21:50.319Z,15.65
2023-03-17T12:23:21.538Z,16.32
2023-03-17T12:24:41.855Z,15.85
2023-03-17T12:26:06.987Z,15.42
2023-03-17T12:27:23.400Z,15.76
2023-03-17T12:28:34.530Z,15.52
2023-03-17T12:29:58.419Z,15.29
2023-03-17T12:31:09.605Z,15.82
2023-03-17T12:32:47.258Z,15.69
2023-03-17T12:34:08.016Z,15.39
2023-03-17T12:35:22.103Z,15.80
2023-03-17T12:36:24.731Z,15.94
2023-03-17T12:37:28.329Z,16.66
2023-03-17T12:38:40.319Z,16.31
2023-03-17T12:39:47.850Z,15.40
2023-03-17T12:41:03.899Z,15.61
2023-03-17T12:42:08.871Z,15.43
2023-03-17T12:43:38.988Z,15.72
2023-03-17T12:44:59.682Z,15.98
2023-03-17T12:46:43.408Z,15.23
2023-03-17T12:47:50.774Z,16.13
2023-03-17T12:49:19.984Z,15.90
2023-03-17T12:50:49.575Z,14.96
2023-03-17T12:52:22.761Z,14.52
2023-03-17T12:53:33.342Z,14.42
2023-03-17T12:54:37.393Z,15.16
2023-03-17T12:55:39.664Z,15.70
2023-03-17T12:56:46.397Z,14.91
2023-03-17T12:57:59.999Z,15.43
2023-03-17T12:59:24.090Z,15.67
2023-03-17T13:00:29.725Z,16.26
2023-03-17T13:01:32.924Z,15.27
2023-03-17T13:02:36.786Z,15.94
2023-03-17T13:03:47.228Z,15.27
2023-03-17T13:04:57.740Z,15.16
2023-03-17T13:06:02.446Z,15.27
2023-03-17T13:07:14.265Z,15.52
2023-03-17T13:08:25.610Z,15.70
2023-03-17T13:09:33.333Z,14.87
2023-03-17T13:10:48.132Z,15.77
2023-03-17T13:11:50.263Z,15.31
2023-03-17T13:13:05.776Z,15.86
2023-03-17T13:14:24.389Z,15.51
2023-03-17T13:15:35.999Z,16.60
2023-03-17T13:16:41.019Z,16.38
2023-03-17T13:17:43.269Z,16.14
2023-03-17T13:18:48.034Z,16.34
2023-03-17T13:20:10.167Z,15.80
2023-03-17T13:21:15.135Z,14.95
2023-03-17T13:22:22.706Z,16.34
2023-03-17T13:24:10.185Z,15.87
2023-03-17T13:25:36.247Z,16.16
2023-03-17T13:27:04.567Z,16.08
2023-03-17T13:28:12.777Z,16.54
2023-03-17T13:29:41.360Z,16.24
2023-03-17T13:30:54.999Z,16.51
2023-03-17T13:32:13.882Z,16.28
2023-03-17T13:33:23.490Z,16.06
2023-03-17T13:34:28.217Z,15.94
2023-03-17T13:35:48.262Z,15.96
2023-03-17T13:37:05.563Z,16.33
2023-03-17T13:38:30.894Z,15.16
2023-03-17T13:39:57.580Z,15.81
2023-03-17T13:41:14.572Z,14.97
2023-03-17T13:42:43.548Z,15.37
2023-03-17T13:44:12.162Z,14.15
2023-03-17T13:45:26.507Z,15.01
2023-03-17T13:46:41.771Z,14.21
2023-03-17T13:47:44.568Z,14.93
2023-03-17T13:48:47.142Z,14.49
2023-03-17T13:49:50.882Z,14.50
2023-03-17T13:51:17.777Z,14.85
2023-03-17T13:52:31.171Z,14.58
2023-03-17T13:53:37.466Z,14.24
2023-03-17T13:54:49.076Z,14.34
2023-03-17T13:56:12.346Z,14.14
2023-03-17T13:57:28.125Z,14.54
2023-03-17T13:58:34.293Z,15.34
2023-03-17T13:59:39.423Z,15.31
2023-03-17T14:00:46.984Z,15.01
2023-03-17T14:02:01.587Z,14.60
2023-03-17T14:03:34.393Z,14.65
2023-03-17T14:04:52.700Z,13.95
2023-03-17T14:05:55.809Z,13.98
2023-03-17T14:07:00.667Z,13.45
2023-03-17T14:08:27.453Z,14.04
2023-03-17T14:09:29.531Z,13.91
2023-03-17T14:10:34.064Z,13.78
2023-03-17T14:11:36.696Z,13.76
2023-03-17T14:12:42.989Z,14.70
2023-03-17T14:14:06.042Z,14.07
2023-03-17T14:15:34.318Z,14.03